createdAt,value
2022-11-15T00:00:04.912Z,6.27
2022-11-15T00:00:41.307Z,6.27
2022-11-15T00:01:07.485Z,6.27
2022-11-15T00:01:47.134Z,6.27
2022-11-15T00:02:17.447Z,6.27
2022-11-15T00:02:40.217Z,6.27
2022-11-15T00:03:03.983Z,6.27
2022-11-15T00:03:37.845Z,6.27
2022-11-15T00:04:09.251Z,6.27
2022-11-15T00:04:41.385Z,6.27
2022-11-15T00:05:11.329Z,6.27
2022-11-15T00:05:48.396Z,6.27
2022-11-15T00:06:17.361Z,6.27
2022-11-15T00:06:40.195Z,6.27
2022-11-15T00:07:03.527Z,6.38
2022-11-15T00:07:54.212Z,6.38
2022-11-15T00:08:10.147Z,6.38
2022-11-15T00:08:41.813Z,6.38
2022-11-15T00:09:11.437Z,6.38
2022-11-15T00:09:46.068Z,6.38
2022-11-15T00:10:17.248Z,6.38
2022-11-15T00:10:39.814Z,6.38
2022-11-15T00:11:03.529Z,6.38
2022-11-15T00:11:37.524Z,6.38
2022-11-15T00:12:09.312Z,6.38
2022-11-15T00:12:41.294Z,6.38
2022-11-15T00:13:11.500Z,6.50
2022-11-15T00:13:45.221Z,6.50
2022-11-15T00:14:17.543Z,6.50
2022-11-15T00:14:40.369Z,6.50
2022-11-15T00:15:03.918Z,6.50
2022-11-15T00:15:37.437Z,6.50
2022-11-15T00:16:09.915Z,6.50
2022-11-15T00:16:41.137Z,6.50
2022-11-15T00:17:12.056Z,6.50
2022-11-15T00:17:45.530Z,6.50
2022-11-15T00:18:17.933Z,6.50
2022-11-15T00:18:40.707Z,6.50
2022-11-15T00:19:03.144Z,6.50
2022-11-15T00:19:37.185Z,6.50
2022-11-15T00:20:09.199Z,6.50
2022-11-15T00:20:41.328Z,6.50
2022-11-15T00:21:11.412Z,6.50
2022-11-15T00:21:46.288Z,6.50
2022-11-15T00:22:17.203Z,6.50
2022-11-15T00:22:39.982Z,6.50
2022-11-15T00:23:04.954Z,6.50
2022-11-15T00:23:37.357Z,6.38
2022-11-15T00:24:09.295Z,6.38
2022-11-15T00:24:42.125Z,6.38
2022-11-15T00:25:12.083Z,6.38
2022-11-15T00:25:45.179Z,6.38
2022-11-15T00:26:18.926Z,6.38
2022-11-15T00:26:41.793Z,6.38
2022-11-15T00:27:07.855Z,6.38
2022-11-15T00:27:37.289Z,6.38
2022-11-15T00:28:09.166Z,6.38
2022-11-15T00:28:41.227Z,6.50
2022-11-15T00:29:12.246Z,6.50
2022-11-15T00:29:46.087Z,6.50
2022-11-15T00:30:17.511Z,6.50
2022-11-15T00:30:40.205Z,6.50
2022-11-15T00:31:02.763Z,6.50
2022-11-15T00:31:37.431Z,6.50
2022-11-15T00:32:09.407Z,6.50
2022-11-15T00:32:41.066Z,6.50
2022-11-15T00:33:12.295Z,6.50
2022-11-15T00:33:45.358Z,6.50
2022-11-15T00:34:17.698Z,6.50
2022-11-15T00:34:40.630Z,6.50
2022-11-15T00:35:02.809Z,6.50
2022-11-15T00:35:37.385Z,6.50
2022-11-15T00:36:09.177Z,6.50
2022-11-15T00:36:42.616Z,6.50
2022-11-15T00:37:11.810Z,6.50
2022-11-15T00:37:46.184Z,6.50
2022-11-15T00:38:17.275Z,6.50
2022-11-15T00:38:39.976Z,6.50
2022-11-15T00:39:03.210Z,6.50
2022-11-15T00:39:37.279Z,6.38
2022-11-15T00:40:09.390Z,6.38
2022-11-15T00:40:41.313Z,6.38
2022-11-15T00:41:12.171Z,6.38
2022-11-15T00:41:45.696Z,6.38
2022-11-15T00:42:17.849Z,6.38
2022-11-15T00:42:40.552Z,6.38
2022-11-15T00:43:03.590Z,6.38
2022-11-15T00:43:38.202Z,6.38
2022-11-15T00:44:11.236Z,6.38
2022-11-15T00:44:41.717Z,6.38
2022-11-15T00:45:13.080Z,6.38
2022-11-15T00:45:46.327Z,6.38
2022-11-15T00:46:22.605Z,6.38
2022-11-15T00:46:39.791Z,6.38
2022-11-15T00:47:02.116Z,6.38
2022-11-15T00:47:37.307Z,6.38
2022-11-15T00:48:09.885Z,6.38
2022-11-15T00:48:41.065Z,6.38
2022-11-15T00:49:15.297Z,6.27
2022-11-15T00:49:45.310Z,6.27
2022-11-15T00:50:17.841Z,6.27
2022-11-15T00:50:40.461Z,6.27
2022-11-15T00:51:02.838Z,6.27
2022-11-15T00:51:37.768Z,6.27
2022-11-15T00:52:09.141Z,6.50
2022-11-15T00:52:41.784Z,6.38
2022-11-15T00:53:11.567Z,6.38
2022-11-15T00:53:46.058Z,6.38
2022-11-15T00:54:17.592Z,6.38
2022-11-15T00:54:40.208Z,6.38
2022-11-15T00:55:03.117Z,6.38
2022-11-15T00:55:37.809Z,6.38
2022-11-15T00:56:10.911Z,6.38
2022-11-15T00:56:43.187Z,6.38
2022-11-15T00:57:13.819Z,6.38
2022-11-15T00:57:45.889Z,6.38
2022-11-15T00:58:18.090Z,6.38
2022-11-15T00:58:40.635Z,6.38
2022-11-15T00:59:05.631Z,6.38
2022-11-15T00:59:41.682Z,6.38
2022-11-15T01:00:10.154Z,6.27
2022-11-15T01:00:41.277Z,6.27
2022-11-15T01:01:11.751Z,6.27
2022-11-15T01:01:45.554Z,6.27
2022-11-15T01:02:17.164Z,6.27
2022-11-15T01:02:39.937Z,6.38
2022-11-15T01:03:02.764Z,6.38
2022-11-15T01:03:37.585Z,6.38
2022-11-15T01:04:09.918Z,6.38
2022-11-15T01:04:41.213Z,6.38
2022-11-15T01:05:11.427Z,6.38
2022-11-15T01:05:45.148Z,6.38
2022-11-15T01:06:19.893Z,6.38
2022-11-15T01:06:41.051Z,6.38
2022-11-15T01:07:03.594Z,6.38
2022-11-15T01:07:37.547Z,6.38
2022-11-15T01:08:09.794Z,6.38
2022-11-15T01:08:41.896Z,6.38
2022-11-15T01:09:11.909Z,6.38
2022-11-15T01:09:45.620Z,6.38
2022-11-15T01:10:17.361Z,6.38
2022-11-15T01:10:40.046Z,6.38
2022-11-15T01:11:02.704Z,6.38
2022-11-15T01:11:38.897Z,6.27
2022-11-15T01:12:10.034Z,6.27
2022-11-15T01:12:41.013Z,6.27
2022-11-15T01:13:11.852Z,6.27
2022-11-15T01:13:45.040Z,6.27
2022-11-15T01:14:21.434Z,6.27
2022-11-15T01:14:40.114Z,6.27
2022-11-15T01:15:02.831Z,6.27
2022-11-15T01:15:42.050Z,6.27
2022-11-15T01:16:09.380Z,6.27
2022-11-15T01:16:41.320Z,6.27
2022-11-15T01:17:11.411Z,6.27
2022-11-15T01:17:45.174Z,6.27
2022-11-15T01:18:17.627Z,6.27
2022-11-15T01:18:40.071Z,6.27
2022-11-15T01:19:03.767Z,6.27
2022-11-15T01:19:37.369Z,6.27
2022-11-15T01:20:12.961Z,6.27
2022-11-15T01:20:35.563Z,6.27
2022-11-15T01:21:11.610Z,6.27
2022-11-15T01:21:45.158Z,6.27
2022-11-15T01:22:17.172Z,6.27
2022-11-15T01:22:40.527Z,6.27
2022-11-15T01:23:02.760Z,6.27
2022-11-15T01:23:37.019Z,6.27
2022-11-15T01:24:09.152Z,6.27
2022-11-15T01:24:41.715Z,6.27
2022-11-15T01:25:09.036Z,6.27
2022-11-15T01:25:45.586Z,6.22
2022-11-15T01:26:17.578Z,6.22
2022-11-15T01:26:40.453Z,6.22
2022-11-15T01:27:02.929Z,6.38
2022-11-15T01:27:38.257Z,6.38
2022-11-15T01:28:09.117Z,6.38
2022-11-15T01:28:41.332Z,6.38
2022-11-15T01:29:11.572Z,6.38
2022-11-15T01:29:45.773Z,6.22
2022-11-15T01:30:17.725Z,6.38
2022-11-15T01:30:39.843Z,6.38
2022-11-15T01:31:03.463Z,6.27
2022-11-15T01:31:37.625Z,6.27
2022-11-15T01:32:09.234Z,6.27
2022-11-15T01:32:41.251Z,6.27
2022-11-15T01:33:12.931Z,6.22
2022-11-15T01:33:45.326Z,6.22
2022-11-15T01:34:17.106Z,6.22
2022-11-15T01:34:39.948Z,6.22
2022-11-15T01:35:02.264Z,6.27
2022-11-15T01:35:37.678Z,6.27
2022-11-15T01:36:09.348Z,6.27
2022-11-15T01:36:42.339Z,6.27
2022-11-15T01:37:15.933Z,6.27
2022-11-15T01:37:45.361Z,6.27
2022-11-15T01:38:23.867Z,6.27
2022-11-15T01:38:40.055Z,6.27
2022-11-15T01:39:03.576Z,6.27
2022-11-15T01:39:37.203Z,6.27
2022-11-15T01:40:11.046Z,6.27
2022-11-15T01:40:41.217Z,6.50
2022-11-15T01:41:12.613Z,6.50
2022-11-15T01:41:45.860Z,6.38
2022-11-15T01:42:17.489Z,6.38
2022-11-15T01:42:39.941Z,6.38
2022-11-15T01:43:03.399Z,6.38
2022-11-15T01:43:38.278Z,6.38
2022-11-15T01:44:11.122Z,6.38
2022-11-15T01:44:42.817Z,6.38
2022-11-15T01:45:14.801Z,6.27
2022-11-15T01:45:45.624Z,6.27
2022-11-15T01:46:17.004Z,6.27
2022-11-15T01:46:43.249Z,6.27
2022-11-15T01:47:03.911Z,6.27
2022-11-15T01:47:37.507Z,6.38
2022-11-15T01:48:09.553Z,6.50
2022-11-15T01:48:41.202Z,6.61
2022-11-15T01:49:12.143Z,6.72
2022-11-15T01:49:45.082Z,6.72
2022-11-15T01:50:17.565Z,6.72
2022-11-15T01:50:39.798Z,6.72
2022-11-15T01:51:02.559Z,6.72
2022-11-15T01:51:37.134Z,6.72
2022-11-15T01:52:09.168Z,6.72
2022-11-15T01:52:41.004Z,6.72
2022-11-15T01:53:11.775Z,6.72
2022-11-15T01:53:45.784Z,6.72
2022-11-15T01:54:17.057Z,6.72
2022-11-15T01:54:39.739Z,6.72
2022-11-15T01:55:02.405Z,6.72
2022-11-15T01:55:38.266Z,6.72
2022-11-15T01:56:09.685Z,6.61
2022-11-15T01:56:41.457Z,6.61
2022-11-15T01:57:14.799Z,6.77
2022-11-15T01:57:45.058Z,6.77
2022-11-15T01:58:17.954Z,6.77
2022-11-15T01:58:40.644Z,6.77
2022-11-15T01:59:03.138Z,6.77
2022-11-15T01:59:39.536Z,6.77
2022-11-15T02:00:09.780Z,6.77
2022-11-15T02:00:41.343Z,6.77
2022-11-15T02:01:11.614Z,6.77
2022-11-15T02:01:47.217Z,6.77
2022-11-15T02:02:17.095Z,6.77
2022-11-15T02:02:39.797Z,6.88
2022-11-15T02:03:02.800Z,6.88
2022-11-15T02:03:37.982Z,6.88
2022-11-15T02:04:09.625Z,6.88
2022-11-15T02:04:41.307Z,6.88
2022-11-15T02:05:11.420Z,7.00
2022-11-15T02:05:45.149Z,7.00
2022-11-15T02:06:17.352Z,7.00
2022-11-15T02:06:40.468Z,7.00
2022-11-15T02:07:02.944Z,7.00
2022-11-15T02:07:37.294Z,7.00
2022-11-15T02:08:09.178Z,7.00
2022-11-15T02:08:43.621Z,7.00
2022-11-15T02:09:14.244Z,6.88
2022-11-15T02:09:46.001Z,6.88
2022-11-15T02:10:17.414Z,6.88
2022-11-15T02:10:40.024Z,6.88
2022-11-15T02:11:02.562Z,6.88
2022-11-15T02:11:37.241Z,6.88
2022-11-15T02:12:11.685Z,6.88
2022-11-15T02:12:41.149Z,6.88
2022-11-15T02:13:12.132Z,6.88
2022-11-15T02:13:45.130Z,6.88
2022-11-15T02:14:18.347Z,6.88
2022-11-15T02:14:41.081Z,6.77
2022-11-15T02:15:03.879Z,6.77
2022-11-15T02:15:40.689Z,6.77
2022-11-15T02:16:09.233Z,6.77
2022-11-15T02:16:42.677Z,6.88
2022-11-15T02:17:13.048Z,6.88
2022-11-15T02:17:45.213Z,6.88
2022-11-15T02:18:17.125Z,6.88
2022-11-15T02:18:39.750Z,6.88
2022-11-15T02:19:02.267Z,6.88
2022-11-15T02:19:37.097Z,6.88
2022-11-15T02:20:09.945Z,6.88
2022-11-15T02:20:41.407Z,6.88
2022-11-15T02:21:13.549Z,7.00
2022-11-15T02:21:45.802Z,7.00
2022-11-15T02:22:17.445Z,7.00
2022-11-15T02:22:40.165Z,6.88
2022-11-15T02:23:02.609Z,6.88
2022-11-15T02:23:38.145Z,7.00
2022-11-15T02:24:09.202Z,7.00
2022-11-15T02:24:42.645Z,7.00
2022-11-15T02:25:13.629Z,7.11
2022-11-15T02:25:45.396Z,7.11
2022-11-15T02:26:17.344Z,7.11
2022-11-15T02:26:39.871Z,7.11
2022-11-15T02:27:03.304Z,7.22
2022-11-15T02:27:37.309Z,7.22
2022-11-15T02:28:09.180Z,7.22
2022-11-15T02:28:42.634Z,7.22
2022-11-15T02:29:11.481Z,7.22
2022-11-15T02:29:45.348Z,7.22
2022-11-15T02:30:17.354Z,7.22
2022-11-15T02:30:39.958Z,7.22
2022-11-15T02:31:02.434Z,7.22
2022-11-15T02:31:37.111Z,7.27
2022-11-15T02:32:08.993Z,7.27
2022-11-15T02:32:41.567Z,7.38
2022-11-15T02:33:13.346Z,7.38
2022-11-15T02:33:45.473Z,7.50
2022-11-15T02:34:17.079Z,7.50
2022-11-15T02:34:39.797Z,7.50
2022-11-15T02:35:02.243Z,7.50
2022-11-15T02:35:37.269Z,7.50
2022-11-15T02:36:09.168Z,7.50
2022-11-15T02:36:42.597Z,7.50
2022-11-15T02:39:40.784Z,7.72
2022-11-15T02:40:03.290Z,7.77
2022-11-15T02:40:41.857Z,7.77
2022-11-15T02:41:11.357Z,7.77
2022-11-15T02:41:45.014Z,7.77
2022-11-15T02:42:17.377Z,7.77
2022-11-15T02:42:41.101Z,7.77
2022-11-15T02:43:07.923Z,7.88
2022-11-15T02:43:37.077Z,7.88
2022-11-15T02:44:09.238Z,7.88
2022-11-15T02:44:41.003Z,8.00
2022-11-15T02:45:11.575Z,8.00
2022-11-15T02:45:45.018Z,8.00
2022-11-15T02:46:17.132Z,8.00
2022-11-15T02:46:40.418Z,8.00
2022-11-15T02:47:03.073Z,8.00
2022-11-15T02:47:37.127Z,8.00
2022-11-15T02:48:09.262Z,8.11
2022-11-15T02:48:41.134Z,8.11
2022-11-15T02:49:11.342Z,8.22
2022-11-15T02:49:45.091Z,8.22
2022-11-15T02:50:17.144Z,8.22
2022-11-15T02:50:40.657Z,8.22
2022-11-15T02:51:02.963Z,8.22
2022-11-15T02:51:37.244Z,8.22
2022-11-15T02:52:09.042Z,8.22
2022-11-15T02:52:35.136Z,8.22
2022-11-15T02:53:12.930Z,8.22
2022-11-15T02:53:45.728Z,8.22
2022-11-15T02:54:17.025Z,8.22
2022-11-15T02:54:39.715Z,8.38
2022-11-15T02:55:03.553Z,8.22
2022-11-15T02:55:37.199Z,8.22
2022-11-15T02:56:10.799Z,8.27
2022-11-15T02:56:41.457Z,8.50
2022-11-15T02:57:12.965Z,8.50
2022-11-15T02:57:45.387Z,8.50
2022-11-15T02:58:17.923Z,8.50
2022-11-15T02:58:40.680Z,8.61
2022-11-15T02:59:04.894Z,8.50
2022-11-15T02:59:37.707Z,8.72
2022-11-15T03:00:10.006Z,8.61
2022-11-15T03:00:42.189Z,8.77
2022-11-15T03:01:11.733Z,8.72
2022-11-15T03:01:45.365Z,8.72
2022-11-15T03:02:17.373Z,8.72
2022-11-15T03:02:40.025Z,8.77
2022-11-15T03:03:03.219Z,8.77
2022-11-15T03:03:37.154Z,8.77
2022-11-15T03:04:09.362Z,8.77
2022-11-15T03:04:41.034Z,8.77
2022-11-15T03:05:11.488Z,8.77
2022-11-15T03:05:45.096Z,8.77
2022-11-15T03:06:17.080Z,8.77
2022-11-15T03:06:39.921Z,8.77
2022-11-15T03:07:02.480Z,8.77
2022-11-15T03:07:37.614Z,8.77
2022-11-15T03:08:09.040Z,8.77
2022-11-15T03:08:41.015Z,8.88
2022-11-15T03:09:11.998Z,8.88
2022-11-15T03:09:45.312Z,8.88
2022-11-15T03:10:17.897Z,8.88
2022-11-15T03:10:41.127Z,8.88
2022-11-15T03:11:03.627Z,8.88
2022-11-15T03:11:37.130Z,8.88
2022-11-15T03:12:12.643Z,8.88
2022-11-15T03:12:41.219Z,8.88
2022-11-15T03:13:12.189Z,8.88
2022-11-15T03:13:45.082Z,8.88
2022-11-15T03:14:18.059Z,8.88
2022-11-15T03:14:40.772Z,8.88
2022-11-15T03:15:03.273Z,8.88
2022-11-15T03:15:38.218Z,8.88
2022-11-15T03:16:12.528Z,8.88
2022-11-15T03:16:35.242Z,8.88
2022-11-15T03:17:15.063Z,8.88
2022-11-15T03:17:45.003Z,9.00
2022-11-15T03:18:17.375Z,9.00
2022-11-15T03:18:39.786Z,9.00
2022-11-15T03:19:02.203Z,9.00
2022-11-15T03:19:37.027Z,9.00
2022-11-15T03:20:09.063Z,9.00
2022-11-15T03:20:41.237Z,9.00
2022-11-15T03:21:11.456Z,9.00
2022-11-15T03:21:45.579Z,9.11
2022-11-15T03:22:16.961Z,9.11
2022-11-15T03:22:40.075Z,9.11
2022-11-15T03:23:02.862Z,9.11
2022-11-15T03:23:36.986Z,9.11
2022-11-15T03:24:09.525Z,9.11
2022-11-15T03:24:40.948Z,9.11
2022-11-15T03:25:11.367Z,9.22
2022-11-15T03:25:44.984Z,9.22
2022-11-15T03:26:17.550Z,9.22
2022-11-15T03:26:41.636Z,9.22
2022-11-15T03:27:04.060Z,9.11
2022-11-15T03:27:37.030Z,9.11
2022-11-15T03:28:09.095Z,9.11
2022-11-15T03:28:35.409Z,9.11
2022-11-15T03:29:11.788Z,9.22
2022-11-15T03:29:45.116Z,9.22
2022-11-15T03:30:17.127Z,9.22
2022-11-15T03:30:39.746Z,9.22
2022-11-15T03:31:02.385Z,9.22
2022-11-15T03:31:37.453Z,9.22
2022-11-15T03:32:09.445Z,9.22
2022-11-15T03:32:41.157Z,9.22
2022-11-15T03:33:11.819Z,9.22
2022-11-15T03:33:45.136Z,9.22
2022-11-15T03:34:17.556Z,9.22
2022-11-15T03:34:40.129Z,9.22
2022-11-15T03:35:02.922Z,9.22
2022-11-15T03:35:37.467Z,9.22
2022-11-15T03:36:09.057Z,9.22
2022-11-15T03:36:47.636Z,9.22
2022-11-15T03:37:10.037Z,9.22
2022-11-15T03:37:46.599Z,9.22
2022-11-15T03:38:17.274Z,9.22
2022-11-15T03:38:39.869Z,9.22
2022-11-15T03:39:02.021Z,9.22
2022-11-15T03:39:37.047Z,9.22
2022-11-15T03:40:11.464Z,9.22
2022-11-15T03:40:40.957Z,9.22
2022-11-15T03:41:12.056Z,9.22
2022-11-15T03:41:46.548Z,9.22
2022-11-15T03:42:17.012Z,9.22
2022-11-15T03:42:40.033Z,9.22
2022-11-15T03:43:02.327Z,9.22
2022-11-15T03:43:37.055Z,9.27
2022-11-15T03:44:09.331Z,9.27
2022-11-15T03:44:40.938Z,9.27
2022-11-15T03:45:11.750Z,9.27
2022-11-15T03:45:45.109Z,9.27
2022-11-15T03:46:17.306Z,9.27
2022-11-15T03:46:39.974Z,9.27
2022-11-15T03:47:05.923Z,9.27
2022-11-15T03:47:37.491Z,9.27
2022-11-15T03:48:09.250Z,9.27
2022-11-15T03:48:40.955Z,9.27
2022-11-15T03:49:11.465Z,9.27
2022-11-15T03:49:45.025Z,9.27
2022-11-15T03:50:17.043Z,9.27
2022-11-15T03:50:39.890Z,9.27
2022-11-15T03:51:02.293Z,9.27
2022-11-15T03:51:37.042Z,9.27
2022-11-15T03:52:09.110Z,9.27
2022-11-15T03:52:40.952Z,9.27
2022-11-15T03:53:11.611Z,9.27
2022-11-15T03:53:45.018Z,9.22
2022-11-15T03:54:17.137Z,9.22
2022-11-15T03:54:40.037Z,9.22
2022-11-15T03:55:02.342Z,9.22
2022-11-15T03:55:37.064Z,9.22
2022-11-15T03:56:09.128Z,9.22
2022-11-15T03:56:40.913Z,9.22
2022-11-15T03:57:11.386Z,9.22
2022-11-15T03:57:45.080Z,9.22
2022-11-15T03:58:17.039Z,9.22
2022-11-15T03:58:40.342Z,9.22
2022-11-15T03:59:02.949Z,9.22
2022-11-15T03:59:37.140Z,9.22
2022-11-15T04:00:09.704Z,9.22
2022-11-15T04:00:40.997Z,9.22
2022-11-15T04:01:11.686Z,9.22
2022-11-15T04:01:44.912Z,9.22
2022-11-15T04:02:17.036Z,9.22
2022-11-15T04:02:39.961Z,9.22
2022-11-15T04:03:02.113Z,9.11
2022-11-15T04:03:37.403Z,9.11
2022-11-15T04:04:08.908Z,9.11
2022-11-15T04:04:41.018Z,9.11
2022-11-15T04:05:11.329Z,9.11
2022-11-15T04:05:45.512Z,9.11
2022-11-15T04:06:16.967Z,9.11
2022-11-15T04:06:39.764Z,9.11
2022-11-15T04:07:02.111Z,9.11
2022-11-15T04:07:37.188Z,9.11
2022-11-15T04:08:08.940Z,9.11
2022-11-15T04:08:41.072Z,9.11
2022-11-15T04:09:11.348Z,9.11
2022-11-15T04:09:44.983Z,9.11
2022-11-15T04:10:16.940Z,9.11
2022-11-15T04:10:39.659Z,9.11
2022-11-15T04:11:02.571Z,9.11
2022-11-15T04:11:37.159Z,9.11
2022-11-15T04:12:08.918Z,9.11
2022-11-15T04:12:41.036Z,9.00
2022-11-15T04:13:11.732Z,9.00
2022-11-15T04:13:44.954Z,9.00
2022-11-15T04:14:17.138Z,9.00
2022-11-15T04:14:40.646Z,9.00
2022-11-15T04:15:03.136Z,9.00
2022-11-15T04:15:37.029Z,8.88
2022-11-15T04:16:09.297Z,8.88
2022-11-15T04:16:43.857Z,8.88
2022-11-15T04:17:11.497Z,8.88
2022-11-15T04:17:45.031Z,8.88
2022-11-15T04:18:16.888Z,8.88
2022-11-15T04:18:39.625Z,8.88
2022-11-15T04:19:02.023Z,8.88
2022-11-15T04:19:37.011Z,8.88
2022-11-15T04:20:08.924Z,8.77
2022-11-15T04:20:41.038Z,8.77
2022-11-15T04:21:11.472Z,9.00
2022-11-15T04:21:45.206Z,9.00
2022-11-15T04:22:16.998Z,9.00
2022-11-15T04:22:39.914Z,9.00
2022-11-15T04:23:02.366Z,9.00
2022-11-15T04:23:37.024Z,9.00
2022-11-15T04:24:09.064Z,9.00
2022-11-15T04:24:40.991Z,9.00
2022-11-15T04:25:12.905Z,9.00
2022-11-15T04:25:45.024Z,9.00
2022-11-15T04:26:17.135Z,8.88
2022-11-15T04:26:41.732Z,8.88
2022-11-15T04:27:03.975Z,8.88
2022-11-15T04:27:37.250Z,8.88
2022-11-15T04:28:08.940Z,8.88
2022-11-15T04:28:41.011Z,8.88
2022-11-15T04:29:11.384Z,8.88
2022-11-15T04:29:44.981Z,9.00
2022-11-15T04:30:17.123Z,9.00
2022-11-15T04:30:40.610Z,9.00
2022-11-15T04:31:03.101Z,9.00
2022-11-15T04:31:36.969Z,9.00
2022-11-15T04:32:09.538Z,9.00
2022-11-15T04:32:42.419Z,9.00
2022-11-15T04:33:11.558Z,9.00
2022-11-15T04:33:44.915Z,9.00
2022-11-15T04:34:17.027Z,9.00
2022-11-15T04:34:39.858Z,9.00
2022-11-15T04:35:02.263Z,9.00
2022-11-15T04:35:37.545Z,9.00
2022-11-15T04:36:08.923Z,9.00
2022-11-15T04:36:42.629Z,9.00
2022-11-15T04:37:11.706Z,9.00
2022-11-15T04:37:49.150Z,9.00
2022-11-15T04:38:17.049Z,9.00
2022-11-15T04:38:40.798Z,9.00
2022-11-15T04:39:03.408Z,8.88
2022-11-15T04:39:37.093Z,8.88
2022-11-15T04:40:09.054Z,9.00
2022-11-15T04:40:41.067Z,9.00
2022-11-15T04:41:11.394Z,9.00
2022-11-15T04:41:45.181Z,9.11
2022-11-15T04:42:16.928Z,9.00
2022-11-15T04:42:40.389Z,9.00
2022-11-15T04:43:04.053Z,9.00
2022-11-15T04:43:37.064Z,9.00
2022-11-15T04:44:09.517Z,9.00
2022-11-15T04:44:41.057Z,9.00
2022-11-15T04:45:11.456Z,9.00
2022-11-15T04:45:45.174Z,9.00
2022-11-15T04:46:16.866Z,9.00
2022-11-15T04:46:39.645Z,9.00
2022-11-15T04:47:02.159Z,9.00
2022-11-15T04:47:37.117Z,9.00
2022-11-15T04:48:09.263Z,8.88
2022-11-15T04:48:40.892Z,8.88
2022-11-15T04:49:11.329Z,8.88
2022-11-15T04:49:45.086Z,8.88
2022-11-15T04:50:17.217Z,8.88
2022-11-15T04:50:39.955Z,8.88
2022-11-15T04:51:03.820Z,8.88
2022-11-15T04:51:36.938Z,8.88
2022-11-15T04:52:08.977Z,8.88
2022-11-15T04:52:40.938Z,8.88
2022-11-15T04:53:11.585Z,8.88
2022-11-15T04:53:45.026Z,8.88
2022-11-15T04:54:17.088Z,8.88
2022-11-15T04:54:40.270Z,9.00
2022-11-15T04:55:07.988Z,9.00
2022-11-15T04:55:37.213Z,9.00
2022-11-15T04:56:08.983Z,9.00
2022-11-15T04:56:41.051Z,9.00
2022-11-15T04:57:11.621Z,9.00
2022-11-15T04:57:45.159Z,9.00
2022-11-15T04:58:16.884Z,9.00
2022-11-15T04:58:40.107Z,9.00
2022-11-15T04:59:02.415Z,9.00
2022-11-15T04:59:40.371Z,9.00
2022-11-15T05:00:09.809Z,9.00
2022-11-15T05:00:41.109Z,9.00
2022-11-15T05:01:11.428Z,9.00
2022-11-15T05:01:45.323Z,9.00
2022-11-15T05:02:17.007Z,9.00
2022-11-15T05:02:39.908Z,9.00
2022-11-15T05:03:02.540Z,9.00
2022-11-15T05:03:36.998Z,9.00
2022-11-15T05:04:09.134Z,8.88
2022-11-15T05:04:40.909Z,8.88
2022-11-15T05:05:11.515Z,8.88
2022-11-15T05:05:44.927Z,8.88
2022-11-15T05:06:17.287Z,8.88
2022-11-15T05:06:40.627Z,8.88
2022-11-15T05:07:03.083Z,8.88
2022-11-15T05:07:37.079Z,8.88
2022-11-15T05:08:09.050Z,8.88
2022-11-15T05:08:41.054Z,9.00
2022-11-15T05:09:11.344Z,9.00
2022-11-15T05:09:44.932Z,9.00
2022-11-15T05:10:16.925Z,9.00
2022-11-15T05:10:39.651Z,9.00
2022-11-15T05:11:02.189Z,9.00
2022-11-15T05:11:37.028Z,9.00
2022-11-15T05:12:08.960Z,9.00
2022-11-15T05:12:41.008Z,9.00
2022-11-15T05:13:11.485Z,9.00
2022-11-15T05:13:45.147Z,9.00
2022-11-15T05:14:17.046Z,9.00
2022-11-15T05:14:39.773Z,9.00
2022-11-15T05:15:02.257Z,9.00
2022-11-15T05:15:37.554Z,9.00
2022-11-15T05:16:09.105Z,9.00
2022-11-15T05:16:40.899Z,9.11
2022-11-15T05:17:11.365Z,9.11
2022-11-15T05:17:45.042Z,9.11
2022-11-15T05:18:22.141Z,9.11
2022-11-15T05:18:40.870Z,9.11
2022-11-15T05:19:03.216Z,9.11
2022-11-15T05:19:37.436Z,9.11
2022-11-15T05:20:09.302Z,9.11
2022-11-15T05:20:40.984Z,9.11
2022-11-15T05:21:11.354Z,9.11
2022-11-15T05:21:44.938Z,9.11
2022-11-15T05:22:17.273Z,9.11
2022-11-15T05:22:40.520Z,9.11
2022-11-15T05:23:03.095Z,9.11
2022-11-15T05:23:36.892Z,9.11
2022-11-15T05:24:08.939Z,9.11
2022-11-15T05:24:40.866Z,9.11
2022-11-15T05:25:12.920Z,9.11
2022-11-15T05:25:45.119Z,9.11
2022-11-15T05:26:17.029Z,9.11
2022-11-15T05:26:39.740Z,9.11
2022-11-15T05:27:02.344Z,9.11
2022-11-15T05:27:37.144Z,9.11
2022-11-15T05:28:08.911Z,9.11
2022-11-15T05:28:40.981Z,9.11
2022-11-15T05:29:11.572Z,9.11
2022-11-15T05:29:44.956Z,9.11
2022-11-15T05:30:17.035Z,9.11
2022-11-15T05:30:39.672Z,9.11
2022-11-15T05:31:01.981Z,9.11
2022-11-15T05:31:37.060Z,9.11
2022-11-15T05:32:09.101Z,9.11
2022-11-15T05:32:40.982Z,9.22
2022-11-15T05:33:11.492Z,9.22
2022-11-15T05:33:44.867Z,9.22
2022-11-15T05:34:16.871Z,9.22
2022-11-15T05:34:39.710Z,9.22
2022-11-15T05:35:02.244Z,9.22
2022-11-15T05:35:36.933Z,9.22
2022-11-15T05:36:08.904Z,9.22
2022-11-15T05:36:50.335Z,9.22
2022-11-15T05:37:07.729Z,9.22
2022-11-15T05:37:45.402Z,9.22
2022-11-15T05:38:21.623Z,9.27
2022-11-15T05:38:40.858Z,9.27
2022-11-15T05:39:03.267Z,9.27
2022-11-15T05:39:38.239Z,9.22
2022-11-15T05:40:09.227Z,9.22
2022-11-15T05:40:42.252Z,9.22
2022-11-15T05:41:12.191Z,9.22
2022-11-15T05:41:44.842Z,9.22
2022-11-15T05:42:19.428Z,9.22
2022-11-15T05:42:40.875Z,9.22
2022-11-15T05:43:03.621Z,9.27
2022-11-15T05:43:37.108Z,9.27
2022-11-15T05:44:09.337Z,9.27
2022-11-15T05:44:41.737Z,9.27
2022-11-15T05:45:12.032Z,9.27
2022-11-15T05:45:45.647Z,9.27
2022-11-15T05:46:17.469Z,9.22
2022-11-15T05:46:40.192Z,9.22
2022-11-15T05:47:03.692Z,9.22
2022-11-15T05:47:37.813Z,9.22
2022-11-15T05:48:09.388Z,9.22
2022-11-15T05:48:40.903Z,9.22
2022-11-15T05:49:11.397Z,9.22
2022-11-15T05:49:45.016Z,9.22
2022-11-15T05:50:17.088Z,9.22
2022-11-15T05:50:39.756Z,9.22
2022-11-15T05:51:03.320Z,9.22
2022-11-15T05:51:37.926Z,9.22
2022-11-15T05:52:10.204Z,9.22
2022-11-15T05:52:41.167Z,9.22
2022-11-15T05:53:11.945Z,9.22
2022-11-15T05:53:44.957Z,9.22
2022-11-15T05:54:16.943Z,9.22
2022-11-15T05:54:39.667Z,9.22
2022-11-15T05:55:02.102Z,9.22
2022-11-15T05:55:37.517Z,9.22
2022-11-15T05:56:09.408Z,9.22
2022-11-15T05:56:41.378Z,9.22
2022-11-15T05:57:11.432Z,9.22
2022-11-15T05:57:45.362Z,9.22
2022-11-15T05:58:17.484Z,9.22
2022-11-15T05:58:40.256Z,9.22
2022-11-15T05:59:03.328Z,9.22
2022-11-15T05:59:37.445Z,9.22
2022-11-15T06:00:10.093Z,9.22
2022-11-15T06:00:40.998Z,9.22
2022-11-15T06:01:11.659Z,9.22
2022-11-15T06:01:45.213Z,9.22
2022-11-15T06:02:17.527Z,9.22
2022-11-15T06:02:40.169Z,9.22
2022-11-15T06:03:04.550Z,9.22
2022-11-15T06:03:37.451Z,9.22
2022-11-15T06:04:09.050Z,9.22
2022-11-15T06:04:41.568Z,9.22
2022-11-15T06:05:11.598Z,9.11
2022-11-15T06:05:46.515Z,9.11
2022-11-15T06:06:23.372Z,9.11
2022-11-15T06:06:40.512Z,9.11
2022-11-15T06:07:03.510Z,9.11
2022-11-15T06:07:37.258Z,9.11
2022-11-15T06:08:09.192Z,9.11
2022-11-15T06:08:40.871Z,9.00
2022-11-15T06:09:11.619Z,9.00
2022-11-15T06:09:45.016Z,9.00
2022-11-15T06:10:17.060Z,9.00
2022-11-15T06:10:39.790Z,9.00
2022-11-15T06:11:02.156Z,9.00
2022-11-15T06:11:37.807Z,9.00
2022-11-15T06:12:08.924Z,9.00
2022-11-15T06:12:41.844Z,9.00
2022-11-15T06:13:12.022Z,9.00
2022-11-15T06:13:45.234Z,9.00
2022-11-15T06:14:17.720Z,9.00
2022-11-15T06:14:40.194Z,9.00
2022-11-15T06:15:04.644Z,9.00
2022-11-15T06:15:37.582Z,9.00
2022-11-15T06:16:09.706Z,9.00
2022-11-15T06:16:46.365Z,9.00
2022-11-15T06:17:12.443Z,9.00
2022-11-15T06:17:48.879Z,9.00
2022-11-15T06:18:11.410Z,9.00
2022-11-15T06:18:43.029Z,9.00
2022-11-15T06:19:21.230Z,9.00
2022-11-15T06:19:44.237Z,9.00
2022-11-15T06:20:06.712Z,9.00
2022-11-15T06:20:40.950Z,9.00
2022-11-15T06:21:11.539Z,9.00
2022-11-15T06:21:45.214Z,9.00
2022-11-15T06:22:17.023Z,9.00
2022-11-15T06:22:39.610Z,9.00
2022-11-15T06:23:01.968Z,9.00
2022-11-15T06:23:37.069Z,9.11
2022-11-15T06:24:09.579Z,9.11
2022-11-15T06:24:40.837Z,9.11
2022-11-15T06:25:11.375Z,9.11
2022-11-15T06:25:44.913Z,9.11
2022-11-15T06:26:17.260Z,9.11
2022-11-15T06:26:40.346Z,9.11
2022-11-15T06:27:02.512Z,9.11
2022-11-15T06:27:37.171Z,9.11
2022-11-15T06:28:09.116Z,9.11
2022-11-15T06:28:40.982Z,9.11
2022-11-15T06:29:11.496Z,9.11
2022-11-15T06:29:45.308Z,9.11
2022-11-15T06:30:17.054Z,9.11
2022-11-15T06:30:39.764Z,9.11
2022-11-15T06:31:02.119Z,9.11
2022-11-15T06:31:37.042Z,9.11
2022-11-15T06:32:09.154Z,9.22
2022-11-15T06:32:40.886Z,9.22
2022-11-15T06:33:11.496Z,9.22
2022-11-15T06:33:44.991Z,9.22
2022-11-15T06:34:16.961Z,9.22
2022-11-15T06:34:39.781Z,9.22
2022-11-15T06:35:02.077Z,9.22
2022-11-15T06:35:37.044Z,9.22
2022-11-15T06:36:13.142Z,9.22
2022-11-15T06:36:41.064Z,9.22
2022-11-15T06:37:12.023Z,9.22
2022-11-15T06:37:46.452Z,9.22
2022-11-15T06:38:17.247Z,9.22
2022-11-15T06:38:40.448Z,9.22
2022-11-15T06:39:02.863Z,9.22
2022-11-15T06:39:36.977Z,9.22
2022-11-15T06:40:09.467Z,9.22
2022-11-15T06:40:40.971Z,9.22
2022-11-15T06:41:11.646Z,9.27
2022-11-15T06:41:44.973Z,9.27